createdAt,value
2018-07-20T00:00:06.047Z,21.77
2018-07-20T00:01:20.758Z,21.63
2018-07-20T00:02:35.435Z,21.69
2018-07-20T00:03:49.904Z,21.66
2018-07-20T00:05:04.716Z,21.75
2018-07-20T00:06:19.656Z,21.77
2018-07-20T00:07:34.370Z,21.74
2018-07-20T00:08:49.584Z,21.72
2018-07-20T00:10:04.557Z,21.77
2018-07-20T00:11:19.076Z,21.77
2018-07-20T00:12:34.041Z,21.83
2018-07-20T00:13:49.047Z,21.72
2018-07-20T00:15:03.753Z,21.78
2018-07-20T00:16:18.222Z,21.81
2018-07-20T00:17:32.737Z,21.66
2018-07-20T00:18:47.490Z,21.8
2018-07-20T00:20:01.785Z,21.77
2018-07-20T00:21:16.500Z,21.62
2018-07-20T00:22:31.192Z,21.5
2018-07-20T00:23:45.640Z,21.45
2018-07-20T00:25:00.448Z,21.44
2018-07-20T00:26:14.628Z,21.59
2018-07-20T00:27:29.255Z,21.62
2018-07-20T00:28:42.930Z,21.59
2018-07-20T00:29:57.627Z,21.53
2018-07-20T00:31:12.097Z,21.51
2018-07-20T00:32:27.062Z,21.51
2018-07-20T00:33:41.263Z,21.66
2018-07-20T00:34:56.047Z,21.51
2018-07-20T00:36:10.519Z,21.51
2018-07-20T00:37:25.197Z,21.37
2018-07-20T00:38:39.411Z,21.32
2018-07-20T00:39:54.107Z,21.28
2018-07-20T00:41:07.917Z,21.23
2018-07-20T00:42:22.786Z,21.05
2018-07-20T00:43:37.242Z,21
2018-07-20T00:44:52.064Z,21.03
2018-07-20T00:46:06.933Z,21.1
2018-07-20T00:47:21.460Z,21.14
2018-07-20T00:48:35.881Z,21.2
2018-07-20T00:49:50.091Z,21.25
2018-07-20T00:51:04.580Z,21.38
2018-07-20T00:52:19.249Z,21.38
2018-07-20T00:53:33.544Z,21.35
2018-07-20T00:54:47.731Z,21.38
2018-07-20T00:56:02.484Z,21.38
2018-07-20T00:57:16.900Z,21.45
2018-07-20T00:58:30.887Z,21.35
2018-07-20T00:59:45.567Z,21.51
2018-07-20T01:01:00.539Z,21.51
2018-07-20T01:02:15.087Z,21.51
2018-07-20T01:03:29.821Z,21.48
2018-07-20T01:04:44.507Z,21.5
2018-07-20T01:05:59.187Z,21.38
2018-07-20T01:07:13.961Z,21.4
2018-07-20T01:08:28.136Z,21.43
2018-07-20T01:09:43.147Z,21.47
2018-07-20T01:10:58.379Z,21.33
2018-07-20T01:12:13.324Z,21.32
2018-07-20T01:13:27.012Z,21.22
2018-07-20T01:14:41.181Z,20.92
2018-07-20T01:15:55.884Z,20.85
2018-07-20T01:17:10.344Z,20.58
2018-07-20T01:18:24.037Z,20.49
2018-07-20T01:19:38.462Z,20.39
2018-07-20T01:20:53.418Z,20.19
2018-07-20T01:22:08.428Z,20.12
2018-07-20T01:23:22.866Z,19.92
2018-07-20T01:24:37.574Z,19.79
2018-07-20T01:25:52.259Z,19.81
2018-07-20T01:27:06.244Z,19.71
2018-07-20T01:28:20.689Z,19.77
2018-07-20T01:29:34.879Z,19.75
2018-07-20T01:30:49.644Z,19.71
2018-07-20T01:32:04.390Z,19.82
2018-07-20T01:33:19.148Z,19.78
2018-07-20T01:34:33.861Z,19.72
2018-07-20T01:35:48.321Z,19.87
2018-07-20T01:37:02.821Z,20.04
2018-07-20T01:38:17.531Z,20.15
2018-07-20T01:39:32.410Z,20.18
2018-07-20T01:40:46.636Z,20.27
2018-07-20T01:42:01.067Z,20.44
2018-07-20T01:43:16.216Z,20.37
2018-07-20T01:44:30.433Z,20.49
2018-07-20T01:45:45.355Z,20.5
2018-07-20T01:46:59.774Z,20.49
2018-07-20T01:48:13.866Z,20.5
2018-07-20T01:49:27.448Z,20.46
2018-07-20T01:50:41.372Z,20.5
2018-07-20T01:51:56.047Z,20.55
2018-07-20T01:53:10.768Z,20.53
2018-07-20T01:54:24.939Z,20.5
2018-07-20T01:55:39.738Z,20.56
2018-07-20T01:56:54.053Z,20.55
2018-07-20T01:58:08.580Z,20.59
2018-07-20T01:59:23.542Z,20.56
2018-07-20T02:00:37.957Z,20.58
2018-07-20T02:01:52.387Z,20.6
2018-07-20T02:03:06.935Z,20.59
2018-07-20T02:04:21.427Z,20.59
2018-07-20T02:05:36.359Z,20.56
2018-07-20T02:06:51.051Z,20.6
2018-07-20T02:08:05.043Z,20.58
2018-07-20T02:09:19.220Z,20.6
2018-07-20T02:10:33.906Z,20.58
2018-07-20T02:11:48.178Z,20.58
2018-07-20T02:13:02.945Z,20.6
2018-07-20T02:14:17.436Z,20.63
2018-07-20T02:15:31.905Z,20.56
2018-07-20T02:16:45.832Z,20.56
2018-07-20T02:18:00.754Z,20.6
2018-07-20T02:19:15.133Z,20.58
2018-07-20T02:20:29.095Z,20.59
2018-07-20T02:21:43.530Z,20.53
2018-07-20T02:22:58.487Z,20.59
2018-07-20T02:24:12.976Z,20.58
2018-07-20T02:25:27.183Z,20.6
2018-07-20T02:26:41.365Z,20.55
2018-07-20T02:27:55.819Z,20.59
2018-07-20T02:29:10.721Z,20.55
2018-07-20T02:30:24.659Z,20.58
2018-07-20T02:31:39.122Z,20.58
2018-07-20T02:32:53.825Z,20.64
2018-07-20T02:34:08.276Z,20.56
2018-07-20T02:35:22.963Z,20.6
2018-07-20T02:36:37.183Z,20.58
2018-07-20T02:37:51.879Z,20.59
2018-07-20T02:39:06.682Z,20.55
2018-07-20T02:40:21.490Z,20.55
2018-07-20T02:41:35.944Z,20.53
2018-07-20T02:42:50.119Z,20.48
2018-07-20T02:44:04.048Z,20.4
2018-07-20T02:45:18.756Z,20.4
2018-07-20T02:46:32.948Z,20.49
2018-07-20T02:47:47.636Z,20.49
2018-07-20T02:49:02.308Z,20.42
2018-07-20T02:50:16.800Z,20.44
2018-07-20T02:51:31.502Z,20.42
2018-07-20T02:52:46.472Z,20.34
2018-07-20T02:54:01.462Z,20.42
2018-07-20T02:55:15.878Z,20.37
2018-07-20T02:56:30.350Z,20.39
2018-07-20T02:57:45.021Z,20.39
2018-07-20T02:58:59.721Z,20.33
2018-07-20T03:00:13.764Z,20.24
2018-07-20T03:01:27.680Z,20.24
2018-07-20T03:02:41.891Z,20.27
2018-07-20T03:03:56.082Z,20.24
2018-07-20T03:05:10.915Z,20.29
2018-07-20T03:06:26.002Z,20.26
2018-07-20T03:07:40.693Z,20.27
2018-07-20T03:08:55.289Z,20.36
2018-07-20T03:10:09.508Z,20.27
2018-07-20T03:11:24.244Z,20.19
2018-07-20T03:12:38.704Z,20.08
2018-07-20T03:13:52.137Z,20.11
2018-07-20T03:15:06.330Z,20.08
2018-07-20T03:16:20.688Z,20.1
2018-07-20T03:17:35.183Z,20.11
2018-07-20T03:18:49.619Z,20.15
2018-07-20T03:20:04.296Z,20.21
2018-07-20T03:21:18.854Z,20.14
2018-07-20T03:22:33.254Z,20.19
2018-07-20T03:23:47.875Z,20.15
2018-07-20T03:25:02.573Z,20.18
2018-07-20T03:26:17.011Z,20.19
2018-07-20T03:27:31.933Z,20.19
2018-07-20T03:28:46.265Z,20.21
2018-07-20T03:30:00.910Z,20.18
2018-07-20T03:31:15.829Z,20.26
2018-07-20T03:32:35.683Z,20.22
2018-07-20T03:33:50.591Z,20.14
2018-07-20T03:35:04.758Z,20.19
2018-07-20T03:36:19.382Z,20.17
2018-07-20T03:37:33.858Z,20.19
2018-07-20T03:38:48.319Z,20.19
2018-07-20T03:40:02.998Z,20.18
2018-07-20T03:41:17.895Z,20.14
2018-07-20T03:42:32.108Z,20.19
2018-07-20T03:43:46.584Z,20.12
2018-07-20T03:45:01.190Z,20.17
2018-07-20T03:46:15.851Z,20.15
2018-07-20T03:47:30.303Z,20.17
2018-07-20T03:48:44.990Z,20.14
2018-07-20T03:49:59.424Z,20.17
2018-07-20T03:51:14.410Z,20.15
2018-07-20T03:52:28.587Z,20.12
2018-07-20T03:53:42.780Z,20.19
2018-07-20T03:54:57.453Z,20.24
2018-07-20T03:56:11.912Z,20.32
2018-07-20T03:57:26.923Z,20.39
2018-07-20T03:58:41.505Z,20.4
2018-07-20T03:59:55.745Z,20.49
2018-07-20T04:01:10.191Z,20.53
2018-07-20T04:02:24.852Z,20.6
2018-07-20T04:03:39.837Z,21
2018-07-20T04:04:54.400Z,21.51
2018-07-20T04:06:08.590Z,21.78
2018-07-20T04:07:23.758Z,22.07
2018-07-20T04:08:38.565Z,22.28
2018-07-20T04:09:53.074Z,22.21
2018-07-20T04:11:07.635Z,22.04
2018-07-20T04:12:22.598Z,21.89
2018-07-20T04:13:37.172Z,21.78
2018-07-20T04:14:51.688Z,21.74
2018-07-20T04:16:06.700Z,21.65
2018-07-20T04:17:21.289Z,21.53
2018-07-20T04:18:35.812Z,21.53
2018-07-20T04:19:50.066Z,21.53
2018-07-20T04:21:04.808Z,21.65
2018-07-20T04:22:19.609Z,21.7
2018-07-20T04:23:34.324Z,21.7
2018-07-20T04:24:49.298Z,21.77
2018-07-20T04:26:03.778Z,21.92
2018-07-20T04:27:18.132Z,21.96
2018-07-20T04:28:32.051Z,22
2018-07-20T04:29:46.788Z,22.03
2018-07-20T04:31:01.261Z,22.04
2018-07-20T04:32:16.237Z,22.15
2018-07-20T04:33:30.812Z,22.1
2018-07-20T04:34:44.765Z,22.08
2018-07-20T04:35:59.212Z,22.18
2018-07-20T04:37:14.190Z,22.41
2018-07-20T04:38:28.152Z,22.43
2018-07-20T04:39:42.582Z,22.37
2018-07-20T04:40:57.301Z,22.28
2018-07-20T04:42:12.045Z,22.3
2018-07-20T04:43:27.363Z,22.38
2018-07-20T04:44:41.873Z,22.51
2018-07-20T04:45:56.303Z,22.7
2018-07-20T04:47:10.752Z,22.73
2018-07-20T04:48:25.908Z,22.74
2018-07-20T04:49:40.623Z,22.88
2018-07-20T04:50:55.104Z,22.96
2018-07-20T04:52:09.583Z,23.13
2018-07-20T04:53:24.787Z,23.23
2018-07-20T04:54:39.255Z,23.32
2018-07-20T04:55:53.916Z,23.54
2018-07-20T04:57:08.392Z,24.32
2018-07-20T04:58:23.304Z,25.09
2018-07-20T04:59:38.224Z,25.43
2018-07-20T05:00:52.936Z,25.34
2018-07-20T05:02:07.403Z,25.22
2018-07-20T05:03:22.421Z,24.88
2018-07-20T05:04:37.152Z,24.81
2018-07-20T05:05:51.277Z,25.31
2018-07-20T05:07:06.442Z,25.33
2018-07-20T05:08:21.151Z,25.19
2018-07-20T05:09:35.652Z,25.62
2018-07-20T05:10:50.172Z,26.08
2018-07-20T05:12:04.671Z,26.52
2018-07-20T05:13:19.619Z,27
2018-07-20T05:14:34.147Z,27.18
2018-07-20T05:15:48.883Z,27.78
2018-07-20T05:17:03.589Z,27.75
2018-07-20T05:18:17.517Z,26.81
2018-07-20T05:19:32.669Z,26.52
2018-07-20T05:20:47.341Z,26.06
2018-07-20T05:22:02.300Z,25.36
2018-07-20T05:23:16.010Z,25.15
2018-07-20T05:24:30.681Z,24.85
2018-07-20T05:25:44.879Z,24.59
2018-07-20T05:26:59.058Z,24.61
2018-07-20T05:28:13.521Z,24.37
2018-07-20T05:29:27.394Z,24.37
2018-07-20T05:30:41.901Z,24.5
2018-07-20T05:31:56.089Z,24.58
2018-07-20T05:33:10.867Z,24.84
2018-07-20T05:34:25.725Z,25.14
2018-07-20T05:35:40.485Z,25.44
2018-07-20T05:36:54.974Z,25.7
2018-07-20T05:38:09.695Z,25.93
2018-07-20T05:39:24.677Z,25.93
2018-07-20T05:40:38.820Z,25.88
2018-07-20T05:41:52.787Z,25.99
2018-07-20T05:43:07.004Z,25.93
2018-07-20T05:44:21.452Z,25.99
2018-07-20T05:45:36.570Z,26.06
2018-07-20T05:46:51.513Z,25.98
2018-07-20T05:48:06.478Z,26.07
2018-07-20T05:49:21.661Z,26.11
2018-07-20T05:50:36.466Z,26.1
2018-07-20T05:51:50.931Z,25.93
2018-07-20T05:53:05.394Z,25.96
2018-07-20T05:54:19.934Z,26.03
2018-07-20T05:55:34.563Z,25.99
2018-07-20T05:56:48.761Z,25.99
2018-07-20T05:58:03.483Z,26.06
2018-07-20T05:59:18.215Z,26.01
2018-07-20T06:00:33.085Z,26.06
2018-07-20T06:01:47.544Z,26.06
2018-07-20T06:03:02.289Z,26.1
2018-07-20T06:04:16.765Z,26.23
2018-07-20T06:05:31.281Z,26.18
2018-07-20T06:06:46.166Z,26.27
2018-07-20T06:08:01.213Z,26.19
2018-07-20T06:09:15.690Z,26.19
2018-07-20T06:10:30.404Z,26.27
2018-07-20T06:11:44.863Z,26.34
2018-07-20T06:12:59.114Z,26.33
2018-07-20T06:14:13.759Z,26.41
2018-07-20T06:15:27.802Z,26.39
2018-07-20T06:16:42.675Z,26.49
2018-07-20T06:17:57.866Z,26.59
2018-07-20T06:19:13.238Z,26.34
2018-07-20T06:20:28.365Z,26.24
2018-07-20T06:21:43.042Z,26.39
2018-07-20T06:22:57.808Z,26.55
2018-07-20T06:24:12.365Z,26.36
2018-07-20T06:25:27.118Z,26.36
2018-07-20T06:26:42.080Z,26.31
2018-07-20T06:27:57.095Z,26.33
2018-07-20T06:29:11.075Z,26.1
2018-07-20T06:30:25.815Z,26.13
2018-07-20T06:31:40.864Z,26.23
2018-07-20T06:32:55.110Z,26.08
2018-07-20T06:34:09.091Z,26.07
2018-07-20T06:35:23.326Z,26.22
2018-07-20T06:36:38.317Z,26.01
2018-07-20T06:37:52.989Z,26.06
2018-07-20T06:39:07.221Z,25.91
2018-07-20T06:40:21.750Z,26.07
2018-07-20T06:41:35.973Z,25.95
2018-07-20T06:42:50.215Z,25.93
2018-07-20T06:44:05.003Z,26.04
2018-07-20T06:45:19.453Z,26.01
2018-07-20T06:46:34.499Z,26.06
2018-07-20T06:47:49.246Z,25.92
2018-07-20T06:49:03.781Z,26.06
2018-07-20T06:50:18.608Z,26.1
2018-07-20T06:51:34.120Z,26.01
2018-07-20T06:52:49.223Z,26.06
2018-07-20T06:54:03.732Z,25.93
2018-07-20T06:55:18.776Z,26.06
2018-07-20T06:56:33.695Z,25.93
2018-07-20T06:57:48.481Z,25.95
2018-07-20T06:59:03.270Z,26.03
2018-07-20T07:00:18.230Z,26.1
2018-07-20T07:01:32.721Z,26.22
2018-07-20T07:02:47.855Z,26.24
2018-07-20T07:04:02.583Z,26.22
2018-07-20T07:05:17.345Z,26.18
2018-07-20T07:06:32.332Z,26.22
2018-07-20T07:07:47.091Z,26.07
2018-07-20T07:09:01.324Z,26.1
2018-07-20T07:10:15.772Z,26.04
2018-07-20T07:11:30.247Z,26.11
2018-07-20T07:12:45.420Z,26.13
2018-07-20T07:13:59.386Z,26.18
2018-07-20T07:15:13.921Z,26.23
2018-07-20T07:16:29.148Z,26.19
2018-07-20T07:17:44.141Z,26.01
2018-07-20T07:18:58.868Z,26.13
2018-07-20T07:20:13.422Z,26.19
2018-07-20T07:21:27.891Z,26.11
2018-07-20T07:22:42.256Z,26.06
2018-07-20T07:23:57.009Z,26.04
2018-07-20T07:25:11.220Z,26.04
2018-07-20T07:26:26.225Z,25.98
2018-07-20T07:27:41.452Z,26.06
2018-07-20T07:28:55.916Z,26.11
2018-07-20T07:30:10.640Z,26.23
2018-07-20T07:31:24.646Z,26.04
2018-07-20T07:32:39.505Z,25.89
2018-07-20T07:33:53.935Z,25.81
2018-07-20T07:35:08.433Z,25.91
2018-07-20T07:36:22.384Z,26.06
2018-07-20T07:37:36.076Z,25.98
2018-07-20T07:38:49.959Z,26.06
2018-07-20T07:40:04.457Z,25.86
2018-07-20T07:41:19.446Z,25.85
2018-07-20T07:42:33.681Z,25.93
2018-07-20T07:43:48.230Z,26.04
2018-07-20T07:45:02.977Z,26.03
2018-07-20T07:46:17.692Z,26.04
2018-07-20T07:47:32.697Z,25.95
2018-07-20T07:48:47.315Z,26.07
2018-07-20T07:50:02.071Z,26.04
2018-07-20T07:51:16.321Z,26.01
2018-07-20T07:52:30.806Z,26.07
2018-07-20T07:53:45.243Z,26.06
2018-07-20T07:55:00.261Z,26.07
2018-07-20T07:56:15.482Z,26.23
2018-07-20T07:57:30.203Z,26.39
2018-07-20T07:58:44.744Z,26.52
2018-07-20T07:59:59.466Z,26.46
2018-07-20T08:01:13.700Z,26.36
2018-07-20T08:02:28.423Z,26.33
2018-07-20T08:03:43.544Z,26.23
2018-07-20T08:04:57.770Z,26.18
2018-07-20T08:06:12.510Z,26.3
2018-07-20T08:07:27.525Z,26.23
2018-07-20T08:08:42.101Z,26.24
2018-07-20T08:09:56.798Z,26.34
2018-07-20T08:11:12.360Z,26.46
2018-07-20T08:12:27.381Z,26.49
2018-07-20T08:13:41.088Z,26.55
2018-07-20T08:14:56.080Z,26.46
2018-07-20T08:16:10.545Z,26.45
2018-07-20T08:17:25.488Z,26.48
2018-07-20T08:18:39.743Z,26.45
2018-07-20T08:19:54.805Z,26.51
2018-07-20T08:21:09.274Z,26.51
2018-07-20T08:22:23.748Z,26.46
2018-07-20T08:23:38.481Z,26.55
2018-07-20T08:24:52.778Z,26.49
2018-07-20T08:26:07.514Z,26.51
2018-07-20T08:27:22.256Z,26.52
2018-07-20T08:28:36.721Z,26.63
2018-07-20T08:29:51.228Z,26.76
2018-07-20T08:31:06.150Z,26.76
2018-07-20T08:32:20.472Z,26.82
2018-07-20T08:33:34.937Z,26.85
2018-07-20T08:34:49.236Z,26.93
2018-07-20T08:36:03.710Z,27.15
2018-07-20T08:37:18.699Z,27.07
2018-07-20T08:38:33.202Z,27.15
2018-07-20T08:39:47.659Z,27.04
2018-07-20T08:41:02.111Z,27.16
2018-07-20T08:42:16.666Z,27.15
2018-07-20T08:43:31.415Z,27.15
2018-07-20T08:44:45.838Z,27.13
2018-07-20T08:46:00.709Z,27.25
2018-07-20T08:47:14.921Z,27.38
2018-07-20T08:48:28.850Z,27.44
2018-07-20T08:49:42.782Z,27.45
2018-07-20T08:50:57.522Z,27.48
2018-07-20T08:52:12.231Z,27.55
2018-07-20T08:53:27.149Z,27.57
2018-07-20T08:54:42.194Z,27.61
2018-07-20T08:55:57.016Z,27.75
2018-07-20T08:57:11.479Z,27.88
2018-07-20T08:58:26.191Z,27.97
2018-07-20T08:59:40.933Z,27.97
2018-07-20T09:00:55.621Z,27.98
2018-07-20T09:02:10.415Z,28.1
2018-07-20T09:03:25.299Z,28.25
2018-07-20T09:04:40.433Z,28.22
2018-07-20T09:05:55.136Z,28.33
2018-07-20T09:07:09.367Z,28.38
2018-07-20T09:08:23.632Z,28.43
2018-07-20T09:09:38.344Z,28.35
2018-07-20T09:10:52.605Z,28.62
2018-07-20T09:12:07.096Z,28.52
2018-07-20T09:13:21.845Z,28.49
2018-07-20T09:14:36.536Z,28.57
2018-07-20T09:15:51.281Z,28.55
2018-07-20T09:17:06.148Z,28.7
2018-07-20T09:18:21.044Z,28.84
2018-07-20T09:19:35.518Z,28.97
2018-07-20T09:20:50.415Z,29.05
2018-07-20T09:22:04.895Z,29.12
2018-07-20T09:23:19.604Z,29.09
2018-07-20T09:24:34.281Z,29.05
2018-07-20T09:25:48.734Z,29.15
2018-07-20T09:27:03.351Z,29.21
2018-07-20T09:28:17.621Z,29.35
2018-07-20T09:29:31.985Z,29.32
2018-07-20T09:30:46.704Z,29.42
2018-07-20T09:32:00.852Z,29.39
2018-07-20T09:33:15.316Z,29.34
2018-07-20T09:34:30.042Z,29.4
2018-07-20T09:35:44.511Z,29.46
2018-07-20T09:36:59.061Z,29.37
2018-07-20T09:38:14.022Z,29.43
2018-07-20T09:39:28.760Z,29.39
2018-07-20T09:40:43.258Z,29.52
2018-07-20T09:41:57.902Z,29.61
2018-07-20T09:43:12.415Z,29.69
2018-07-20T09:44:27.180Z,29.64
2018-07-20T09:45:42.404Z,29.65
2018-07-20T09:46:57.067Z,29.77
2018-07-20T09:48:11.763Z,29.77
2018-07-20T09:49:26.530Z,29.8
2018-07-20T09:50:41.252Z,29.83
2018-07-20T09:51:55.191Z,29.96
2018-07-20T09:53:10.297Z,29.74
2018-07-20T09:54:25.295Z,29.76
2018-07-20T09:55:39.759Z,29.74
2018-07-20T09:56:53.710Z,29.89
2018-07-20T09:58:08.336Z,29.79
2018-07-20T09:59:23.139Z,29.74
2018-07-20T10:00:37.933Z,29.79
2018-07-20T10:01:51.877Z,29.9
2018-07-20T10:03:06.619Z,29.9
2018-07-20T10:04:21.090Z,29.98
2018-07-20T10:05:35.543Z,29.84
2018-07-20T10:06:49.474Z,29.81
2018-07-20T10:08:04.054Z,29.81
2018-07-20T10:09:18.771Z,29.98
2018-07-20T10:10:32.971Z,29.95
2018-07-20T10:11:47.217Z,30.05
2018-07-20T10:13:01.861Z,30.11
2018-07-20T10:14:16.103Z,30.01
2018-07-20T10:15:30.818Z,30.1
2018-07-20T10:16:45.537Z,30.01
2018-07-20T10:18:00.084Z,29.89
2018-07-20T10:19:15.035Z,30.01
2018-07-20T10:20:29.494Z,30.03
2018-07-20T10:21:44.481Z,29.8
2018-07-20T10:22:59.621Z,29.86
2018-07-20T10:24:14.114Z,29.98
2018-07-20T10:25:28.344Z,30.02
2018-07-20T10:26:43.256Z,29.96
2018-07-20T10:27:57.485Z,29.98
2018-07-20T10:29:12.138Z,29.96
2018-07-20T10:30:26.576Z,29.94
2018-07-20T10:31:41.062Z,30.03
2018-07-20T10:32:55.524Z,29.99
2018-07-20T10:34:10.674Z,30.1
2018-07-20T10:35:24.839Z,30.1
2018-07-20T10:36:39.702Z,30.06
2018-07-20T10:37:54.037Z,30.16
2018-07-20T10:39:08.847Z,30.18
2018-07-20T10:40:23.603Z,30.29
2018-07-20T10:41:38.359Z,30.46
2018-07-20T10:42:53.334Z,30.54
2018-07-20T10:44:07.654Z,30.59
2018-07-20T10:45:22.372Z,30.48
2018-07-20T10:46:36.822Z,30.39
2018-07-20T10:47:51.075Z,30.43
2018-07-20T10:49:06.049Z,30.13
2018-07-20T10:50:20.491Z,30.2
2018-07-20T10:51:34.962Z,30.18
2018-07-20T10:52:49.711Z,30.14
2018-07-20T10:54:04.359Z,30.13
2018-07-20T10:55:18.787Z,30.1
2018-07-20T10:56:33.231Z,30.05
2018-07-20T10:57:47.460Z,29.95
2018-07-20T10:59:01.839Z,30.06
2018-07-20T11:00:16.099Z,30.06
2018-07-20T11:01:30.143Z,30.08
2018-07-20T11:02:45.161Z,30.05
2018-07-20T11:03:59.387Z,30.06
2018-07-20T11:05:13.990Z,30.06
2018-07-20T11:06:28.926Z,29.94
2018-07-20T11:07:43.387Z,30.08
2018-07-20T11:08:57.950Z,30.13
2018-07-20T11:10:12.748Z,30.2
2018-07-20T11:11:26.752Z,30.38
2018-07-20T11:12:41.494Z,30.31
2018-07-20T11:13:56.010Z,30.23
2018-07-20T11:15:10.587Z,30.31
2018-07-20T11:16:25.026Z,30.27
2018-07-20T11:17:39.523Z,30.46
2018-07-20T11:18:54.028Z,30.44
2018-07-20T11:20:08.428Z,30.46
2018-07-20T11:21:23.186Z,30.52
2018-07-20T11:22:38.210Z,30.65
2018-07-20T11:23:52.725Z,30.59
2018-07-20T11:25:07.606Z,30.52
2018-07-20T11:26:21.834Z,30.63
2018-07-20T11:27:35.806Z,30.63
2018-07-20T11:28:50.315Z,30.7
2018-07-20T11:30:04.848Z,30.67
2018-07-20T11:31:19.638Z,30.8
2018-07-20T11:32:34.536Z,30.85
2018-07-20T11:33:49.023Z,30.78
2018-07-20T11:35:03.583Z,30.78
2018-07-20T11:36:18.307Z,30.61
2018-07-20T11:37:32.836Z,30.67
2018-07-20T11:38:46.662Z,30.62
2018-07-20T11:40:00.871Z,30.56
2018-07-20T11:41:15.696Z,30.65
2018-07-20T11:42:30.402Z,30.63
2018-07-20T11:43:44.372Z,30.65
2018-07-20T11:44:58.834Z,30.73
2018-07-20T11:46:13.192Z,30.69
2018-07-20T11:47:28.143Z,30.74
2018-07-20T11:48:43.119Z,30.67
2018-07-20T11:49:57.582Z,30.58
2018-07-20T11:51:12.258Z,30.54
2018-07-20T11:52:26.493Z,30.33
2018-07-20T11:53:40.678Z,30.24
2018-07-20T11:54:55.649Z,30.1
2018-07-20T11:56:10.105Z,30.08
2018-07-20T11:57:23.802Z,30.03
2018-07-20T11:58:38.752Z,30.21
2018-07-20T11:59:53.189Z,30.08
2018-07-20T12:01:08.290Z,30.08
2018-07-20T12:02:23.853Z,30.27
2018-07-20T12:03:38.161Z,30.24
2018-07-20T12:04:52.638Z,30.23
2018-07-20T12:06:06.954Z,30.35
2018-07-20T12:07:21.707Z,30.29
2018-07-20T12:08:36.188Z,30.26
2018-07-20T12:09:50.134Z,30.29
2018-07-20T12:11:04.322Z,30.2
2018-07-20T12:12:19.316Z,30.27
2018-07-20T12:13:33.973Z,30.36
2018-07-20T12:14:48.501Z,30.43
2018-07-20T12:16:03.399Z,30.39
2018-07-20T12:17:17.804Z,30.32
2018-07-20T12:18:32.201Z,30.18
2018-07-20T12:19:46.843Z,30.32
2018-07-20T12:21:01.585Z,30.36
2018-07-20T12:22:16.462Z,30.35
2018-07-20T12:23:30.967Z,30.49
2018-07-20T12:24:45.925Z,30.49
2018-07-20T12:25:59.928Z,30.48
2018-07-20T12:27:15.370Z,30.4
2018-07-20T12:28:30.405Z,30.52
2018-07-20T12:29:45.420Z,30.4
2018-07-20T12:30:59.891Z,30.48
2018-07-20T12:32:14.630Z,30.61
2018-07-20T12:33:28.847Z,30.65
2018-07-20T12:34:43.830Z,30.58
2018-07-20T12:35:58.311Z,30.71
2018-07-20T12:37:12.888Z,30.7
2018-07-20T12:38:27.593Z,30.67
2018-07-20T12:39:42.335Z,30.77
2018-07-20T12:40:57.076Z,30.78
2018-07-20T12:42:11.583Z,30.7
2018-07-20T12:43:25.854Z,30.78
2018-07-20T12:44:40.339Z,30.78
2018-07-20T12:45:54.765Z,30.78
2018-07-20T12:47:09.622Z,30.81
2018-07-20T12:48:23.778Z,30.86
2018-07-20T12:49:38.537Z,30.89
2018-07-20T12:50:52.739Z,30.65
2018-07-20T12:52:07.409Z,30.61
2018-07-20T12:53:21.883Z,30.65
2018-07-20T12:54:36.435Z,30.54
2018-07-20T12:55:51.147Z,30.46
2018-07-20T12:57:05.881Z,30.46
2018-07-20T12:58:20.461Z,30.48
2018-07-20T12:59:34.598Z,30.44
2018-07-20T13:00:49.310Z,30.46
2018-07-20T13:02:04.030Z,30.51
2018-07-20T13:03:18.573Z,30.52
2018-07-20T13:04:33.304Z,30.49
2018-07-20T13:05:47.788Z,30.49
2018-07-20T13:07:02.025Z,30.4
2018-07-20T13:08:16.749Z,30.46
2018-07-20T13:09:31.408Z,30.52
2018-07-20T13:10:46.106Z,30.51
2018-07-20T13:12:01.294Z,30.54
2018-07-20T13:13:16.712Z,30.52
2018-07-20T13:14:31.438Z,30.46
2018-07-20T13:15:46.381Z,30.48
2018-07-20T13:17:00.813Z,30.33
2018-07-20T13:18:16.041Z,30.39
2018-07-20T13:19:30.605Z,30.46
2018-07-20T13:20:45.171Z,30.46
2018-07-20T13:22:00.325Z,30.55
2018-07-20T13:23:15.838Z,30.62
2018-07-20T13:24:30.424Z,30.74
2018-07-20T13:25:45.177Z,30.61
2018-07-20T13:26:59.447Z,30.76
2018-07-20T13:28:14.449Z,30.67
2018-07-20T13:29:28.876Z,30.59
2018-07-20T13:30:43.148Z,30.61
2018-07-20T13:31:58.968Z,30.7
2018-07-20T13:33:15.632Z,30.78
2018-07-20T13:34:33.047Z,30.95
2018-07-20T13:35:49.895Z,30.98
2018-07-20T13:37:06.050Z,30.93
2018-07-20T13:38:23.748Z,30.99
2018-07-20T13:39:40.718Z,30.96
2018-07-20T13:40:57.908Z,31.04
2018-07-20T13:42:14.338Z,30.99
2018-07-20T13:43:28.969Z,31.13
2018-07-20T13:44:43.452Z,31.08
2018-07-20T13:45:58.191Z,31.08
2018-07-20T13:47:12.407Z,31.1
2018-07-20T13:48:27.357Z,31.2
2018-07-20T13:49:41.802Z,31.2
2018-07-20T13:50:55.505Z,31.25
2018-07-20T13:52:09.765Z,31.25
2018-07-20T13:53:24.115Z,31.3
2018-07-20T13:54:38.369Z,31.33
2018-07-20T13:55:53.127Z,31.29
2018-07-20T13:57:07.578Z,31.23
2018-07-20T13:58:22.368Z,31.2
2018-07-20T13:59:37.168Z,31.05
2018-07-20T14:00:51.925Z,31.08
2018-07-20T14:02:06.392Z,31.05
2018-07-20T14:03:21.102Z,30.98
2018-07-20T14:04:35.897Z,30.96
2018-07-20T14:05:50.407Z,31
2018-07-20T14:07:04.903Z,31.02
2018-07-20T14:08:19.615Z,31.1
2018-07-20T14:09:34.249Z,31.07
2018-07-20T14:10:48.706Z,31.1
2018-07-20T14:12:03.432Z,31.15
2018-07-20T14:13:17.900Z,31.22
2018-07-20T14:14:32.844Z,31.17
2018-07-20T14:15:47.306Z,31.18
2018-07-20T14:17:02.033Z,31.15
2018-07-20T14:18:16.270Z,31.15
2018-07-20T14:19:31.213Z,31.18
2018-07-20T14:20:45.902Z,31.18
2018-07-20T14:21:59.924Z,31.23
2018-07-20T14:23:14.965Z,31.1
2018-07-20T14:24:29.901Z,31.04
2018-07-20T14:25:44.485Z,31.07
2018-07-20T14:26:58.736Z,31.04
2018-07-20T14:28:13.746Z,31.15
2018-07-20T14:29:28.261Z,31.23
2018-07-20T14:30:43.010Z,31.28
2018-07-20T14:31:58.197Z,31.32
2018-07-20T14:33:13.447Z,31.36
2018-07-20T14:34:27.618Z,31.33
2018-07-20T14:35:42.188Z,31.3
2018-07-20T14:36:56.419Z,31.26
2018-07-20T14:38:11.459Z,31.15
2018-07-20T14:39:26.182Z,31.25
2018-07-20T14:40:40.960Z,31.17
2018-07-20T14:41:55.490Z,31.22
2018-07-20T14:43:10.436Z,31.29
2018-07-20T14:44:25.029Z,31.23
2018-07-20T14:45:39.863Z,31.23
2018-07-20T14:46:54.504Z,31.22
2018-07-20T14:48:09.466Z,31.18
2018-07-20T14:49:24.174Z,31.25
2018-07-20T14:50:38.879Z,31.29
2018-07-20T14:51:53.693Z,31.26
2018-07-20T14:53:08.303Z,31.29
2018-07-20T14:54:22.802Z,31.36
2018-07-20T14:55:37.112Z,31.37
2018-07-20T14:56:51.823Z,31.35
2018-07-20T14:58:06.541Z,31.33
2018-07-20T14:59:21.537Z,31.33
2018-07-20T15:00:38.646Z,31.33
2018-07-20T15:01:53.795Z,31.3
2018-07-20T15:03:08.278Z,31.41
2018-07-20T15:04:22.880Z,31.47
2018-07-20T15:05:37.572Z,31.44
2018-07-20T15:06:52.855Z,31.41
2018-07-20T15:08:07.412Z,31.39
2018-07-20T15:09:22.453Z,31.45
2018-07-20T15:10:37.538Z,31.33
2018-07-20T15:11:52.311Z,31.35
2018-07-20T15:13:07.300Z,31.37
2018-07-20T15:14:21.830Z,31.44
2018-07-20T15:15:36.051Z,31.42
2018-07-20T15:16:50.937Z,31.48
2018-07-20T15:18:05.590Z,31.44
2018-07-20T15:19:20.781Z,31.37
2018-07-20T15:20:35.292Z,31.23
2018-07-20T15:21:50.328Z,31.25
2018-07-20T15:23:04.339Z,31.2
2018-07-20T15:24:18.363Z,31.28
2018-07-20T15:25:33.073Z,31.28
2018-07-20T15:26:47.561Z,31.22
2018-07-20T15:28:02.301Z,31.17
2018-07-20T15:29:16.581Z,31.08
2018-07-20T15:30:30.809Z,31.1
2018-07-20T15:31:46.154Z,30.99
2018-07-20T15:33:00.719Z,30.93
2018-07-20T15:34:15.491Z,30.93
2018-07-20T15:35:29.764Z,30.92
2018-07-20T15:36:44.552Z,30.76
2018-07-20T15:37:58.857Z,30.85
2018-07-20T15:39:13.689Z,30.83
2018-07-20T15:40:27.742Z,30.8
2018-07-20T15:41:42.640Z,30.77
2018-07-20T15:42:56.592Z,30.81
2018-07-20T15:44:11.042Z,30.67
2018-07-20T15:45:25.560Z,30.78
2018-07-20T15:46:41.068Z,30.71
2018-07-20T15:47:57.294Z,30.69
2018-07-20T15:49:11.756Z,30.63
2018-07-20T15:50:26.025Z,30.7
2018-07-20T15:53:42.079Z,30.7
2018-07-20T15:54:57.545Z,30.8
2018-07-20T15:56:12.053Z,30.89
2018-07-20T15:57:26.885Z,30.93
2018-07-20T15:58:41.548Z,30.91
2018-07-20T15:59:56.687Z,31.02
2018-07-20T16:01:11.535Z,30.99
2018-07-20T16:02:26.596Z,31.1
2018-07-20T16:03:41.393Z,31.13
2018-07-20T16:04:55.657Z,31.25
2018-07-20T16:06:09.425Z,31.14